sensor_id;sensor_type;location;lat;lon;timestamp;temperature;humidity
1155;DHT22;566;48.414;9.118;2023-02-01T00:01:18;2.50;98.00
1155;DHT22;566;48.414;9.118;2023-02-01T00:03:44;2.50;98.00
1155;DHT22;566;48.414;9.118;2023-02-01T00:06:09;2.60;98.00
1155;DHT22;566;48.414;9.118;2023-02-01T00:08:35;2.50;98.00
1155;DHT22;566;48.414;9.118;2023-02-01T00:11:06;2.60;98.00
1155;DHT22;566;48.414;9.118;2023-02-01T00:13:33;2.50;98.00
1155;DHT22;566;48.414;9.118;2023-02-01T00:18:29;2.50;98.00
1155;DHT22;566;48.414;9.118;2023-02-01T00:20:55;2.60;98.00
1155;DHT22;566;48.414;9.118;2023-02-01T00:23:20;2.60;98.00
1155;DHT22;566;48.414;9.118;2023-02-01T00:25:46;2.60;98.00
1155;DHT22;566;48.414;9.118;2023-02-01T00:28:11;2.60;98.00
1155;DHT22;566;48.414;9.118;2023-02-01T00:30:38;2.60;98.00
1155;DHT22;566;48.414;9.118;2023-02-01T00:33:04;2.60;98.00
1155;DHT22;566;48.414;9.118;2023-02-01T00:35:29;2.60;98.00
1155;DHT22;566;48.414;9.118;2023-02-01T00:37:55;2.60;98.00
1155;DHT22;566;48.414;9.118;2023-02-01T00:40:23;2.60;98.00
1155;DHT22;566;48.414;9.118;2023-02-01T00:42:49;2.60;98.00
1155;DHT22;566;48.414;9.118;2023-02-01T00:45:14;2.60;98.00
1155;DHT22;566;48.414;9.118;2023-02-01T00:47:40;2.60;98.00
1155;DHT22;566;48.414;9.118;2023-02-01T00:50:06;2.60;98.00
1155;DHT22;566;48.414;9.118;2023-02-01T00:52:31;2.60;98.00
1155;DHT22;566;48.414;9.118;2023-02-01T00:54:57;2.60;98.00
1155;DHT22;566;48.414;9.118;2023-02-01T00:57:23;2.60;98.00
1155;DHT22;566;48.414;9.118;2023-02-01T00:59:48;2.60;98.00
1155;DHT22;566;48.414;9.118;2023-02-01T01:02:14;2.60;98.00
1155;DHT22;566;48.414;9.118;2023-02-01T01:04:40;2.60;98.00
1155;DHT22;566;48.414;9.118;2023-02-01T01:07:05;2.60;98.00
1155;DHT22;566;48.414;9.118;2023-02-01T01:09:31;2.70;98.00
1155;DHT22;566;48.414;9.118;2023-02-01T01:11:57;2.70;98.00
1155;DHT22;566;48.414;9.118;2023-02-01T01:14:30;2.70;98.00
1155;DHT22;566;48.414;9.118;2023-02-01T01:16:55;2.80;98.00
1155;DHT22;566;48.414;9.118;2023-02-01T01:19:21;2.80;98.00
1155;DHT22;566;48.414;9.118;2023-02-01T01:21:47;2.80;98.00
1155;DHT22;566;48.414;9.118;2023-02-01T01:24:12;2.80;98.00
1155;DHT22;566;48.414;9.118;2023-02-01T01:26:38;2.80;98.00
1155;DHT22;566;48.414;9.118;2023-02-01T01:29:03;2.80;98.00
1155;DHT22;566;48.414;9.118;2023-02-01T01:31:29;2.80;98.00
1155;DHT22;566;48.414;9.118;2023-02-01T01:33:58;2.80;98.00
1155;DHT22;566;48.414;9.118;2023-02-01T01:36:25;2.80;98.00
1155;DHT22;566;48.414;9.118;2023-02-01T01:38:51;2.80;97.80
1155;DHT22;566;48.414;9.118;2023-02-01T01:41:20;2.70;98.00
1155;DHT22;566;48.414;9.118;2023-02-01T01:46:31;2.70;97.50
1155;DHT22;566;48.414;9.118;2023-02-01T01:51:31;2.70;96.90
1155;DHT22;566;48.414;9.118;2023-02-01T01:54:05;2.70;96.80
1155;DHT22;566;48.414;9.118;2023-02-01T01:56:32;2.70;96.90
1155;DHT22;566;48.414;9.118;2023-02-01T01:58:59;2.70;96.60
1155;DHT22;566;48.414;9.118;2023-02-01T02:01:26;2.80;97.70
1155;DHT22;566;48.414;9.118;2023-02-01T02:03:52;2.90;97.50
1155;DHT22;566;48.414;9.118;2023-02-01T02:06:30;2.90;97.60
1155;DHT22;566;48.414;9.118;2023-02-01T02:09:03;2.90;97.70
1155;DHT22;566;48.414;9.118;2023-02-01T02:11:29;2.90;97.40
1155;DHT22;566;48.414;9.118;2023-02-01T02:13:56;2.80;97.40
1155;DHT22;566;48.414;9.118;2023-02-01T02:16:58;2.90;97.40
1155;DHT22;566;48.414;9.118;2023-02-01T02:27:50;2.80;97.50
1155;DHT22;566;48.414;9.118;2023-02-01T02:39:13;2.90;98.00
1155;DHT22;566;48.414;9.118;2023-02-01T02:41:54;2.90;98.00
1155;DHT22;566;48.414;9.118;2023-02-01T02:45:06;2.90;98.00
1155;DHT22;566;48.414;9.118;2023-02-01T02:53:27;2.70;96.70
1155;DHT22;566;48.414;9.118;2023-02-01T02:56:15;2.70;95.70
1155;DHT22;566;48.414;9.118;2023-02-01T02:58:59;2.70;95.30
1155;DHT22;566;48.414;9.118;2023-02-01T03:01:43;2.60;94.90
1155;DHT22;566;48.414;9.118;2023-02-01T03:04:30;2.60;94.40
1155;DHT22;566;48.414;9.118;2023-02-01T03:06:55;2.50;94.10
1155;DHT22;566;48.414;9.118;2023-02-01T03:09:27;2.50;93.40
1155;DHT22;566;48.414;9.118;2023-02-01T03:11:59;2.50;94.10
1155;DHT22;566;48.414;9.118;2023-02-01T03:14:47;2.60;94.70
1155;DHT22;566;48.414;9.118;2023-02-01T03:17:22;2.60;94.60
1155;DHT22;566;48.414;9.118;2023-02-01T03:19:52;2.60;94.90
1155;DHT22;566;48.414;9.118;2023-02-01T03:22:23;2.70;95.30
1155;DHT22;566;48.414;9.118;2023-02-01T03:24:55;2.60;95.60
1155;DHT22;566;48.414;9.118;2023-02-01T03:29:59;2.60;94.70
1155;DHT22;566;48.414;9.118;2023-02-01T03:32:26;2.70;95.20
1155;DHT22;566;48.414;9.118;2023-02-01T03:34:52;2.70;95.10
1155;DHT22;566;48.414;9.118;2023-02-01T03:37:26;2.70;95.00
1155;DHT22;566;48.414;9.118;2023-02-01T03:39:57;2.60;94.80
1155;DHT22;566;48.414;9.118;2023-02-01T03:42:33;2.60;94.50
1155;DHT22;566;48.414;9.118;2023-02-01T03:45:11;2.60;94.20
1155;DHT22;566;48.414;9.118;2023-02-01T03:47:42;2.60;93.70
1155;DHT22;566;48.414;9.118;2023-02-01T03:50:11;2.50;93.20
1155;DHT22;566;48.414;9.118;2023-02-01T03:52:52;2.50;92.70
1155;DHT22;566;48.414;9.118;2023-02-01T03:55:21;2.40;92.10
1155;DHT22;566;48.414;9.118;2023-02-01T04:00:28;2.40;91.10
1155;DHT22;566;48.414;9.118;2023-02-01T04:02:54;2.40;91.20
1155;DHT22;566;48.414;9.118;2023-02-01T04:05:21;2.40;91.10
1155;DHT22;566;48.414;9.118;2023-02-01T04:07:47;2.40;91.60
1155;DHT22;566;48.414;9.118;2023-02-01T04:10:13;2.40;91.80
1155;DHT22;566;48.414;9.118;2023-02-01T04:12:39;2.30;91.70
1155;DHT22;566;48.414;9.118;2023-02-01T04:15:06;2.30;91.10
1155;DHT22;566;48.414;9.118;2023-02-01T04:17:32;2.40;91.90
1155;DHT22;566;48.414;9.118;2023-02-01T04:19:57;2.40;92.50
1155;DHT22;566;48.414;9.118;2023-02-01T04:22:23;2.40;93.20
1155;DHT22;566;48.414;9.118;2023-02-01T04:24:49;2.50;93.90
1155;DHT22;566;48.414;9.118;2023-02-01T04:27:15;2.50;93.90
1155;DHT22;566;48.414;9.118;2023-02-01T04:29:40;2.50;94.40
1155;DHT22;566;48.414;9.118;2023-02-01T04:32:06;2.50;94.20
1155;DHT22;566;48.414;9.118;2023-02-01T04:34:32;2.50;94.80
1155;DHT22;566;48.414;9.118;2023-02-01T04:36:57;2.60;95.60
1155;DHT22;566;48.414;9.118;2023-02-01T04:39:23;2.60;96.30
1155;DHT22;566;48.414;9.118;2023-02-01T04:41:48;2.60;96.20
1155;DHT22;566;48.414;9.118;2023-02-01T04:44:16;2.60;96.80
1155;DHT22;566;48.414;9.118;2023-02-01T04:46:43;2.60;96.50
1155;DHT22;566;48.414;9.118;2023-02-01T04:49:10;2.60;97.30
1155;DHT22;566;48.414;9.118;2023-02-01T04:51:35;2.60;96.70
1155;DHT22;566;48.414;9.118;2023-02-01T04:54:01;2.60;97.00
1155;DHT22;566;48.414;9.118;2023-02-01T04:56:26;2.70;97.10
1155;DHT22;566;48.414;9.118;2023-02-01T04:58:52;2.70;97.30
1155;DHT22;566;48.414;9.118;2023-02-01T05:01:18;2.60;97.10
1155;DHT22;566;48.414;9.118;2023-02-01T05:03:43;2.60;96.50
1155;DHT22;566;48.414;9.118;2023-02-01T05:06:09;2.60;97.40
1155;DHT22;566;48.414;9.118;2023-02-01T05:08:35;2.70;97.50
1155;DHT22;566;48.414;9.118;2023-02-01T05:11:00;2.70;97.40
1155;DHT22;566;48.414;9.118;2023-02-01T05:13:28;2.70;97.70
1155;DHT22;566;48.414;9.118;2023-02-01T05:16:13;2.70;97.90
1155;DHT22;566;48.414;9.118;2023-02-01T05:18:38;2.70;98.00
1155;DHT22;566;48.414;9.118;2023-02-01T05:21:04;2.70;98.00
1155;DHT22;566;48.414;9.118;2023-02-01T05:23:32;2.80;98.00
1155;DHT22;566;48.414;9.118;2023-02-01T05:26:18;2.80;98.00
1155;DHT22;566;48.414;9.118;2023-02-01T05:28:43;2.80;98.00
1155;DHT22;566;48.414;9.118;2023-02-01T05:31:12;2.80;98.00
1155;DHT22;566;48.414;9.118;2023-02-01T05:33:37;2.80;98.00
1155;DHT22;566;48.414;9.118;2023-02-01T05:36:03;2.90;98.00
1155;DHT22;566;48.414;9.118;2023-02-01T05:38:29;2.90;98.00
1155;DHT22;566;48.414;9.118;2023-02-01T05:40:57;2.90;98.00
1155;DHT22;566;48.414;9.118;2023-02-01T05:43:23;2.90;98.00
1155;DHT22;566;48.414;9.118;2023-02-01T05:45:48;2.90;98.00
1155;DHT22;566;48.414;9.118;2023-02-01T05:48:14;2.90;98.00
1155;DHT22;566;48.414;9.118;2023-02-01T05:50:39;2.90;98.00
1155;DHT22;566;48.414;9.118;2023-02-01T05:53:05;2.90;98.00
1155;DHT22;566;48.414;9.118;2023-02-01T05:55:31;2.90;98.00
1155;DHT22;566;48.414;9.118;2023-02-01T05:57:57;2.90;98.00
1155;DHT22;566;48.414;9.118;2023-02-01T06:00:23;3.00;98.00
1155;DHT22;566;48.414;9.118;2023-02-01T06:02:48;3.00;98.00
1155;DHT22;566;48.414;9.118;2023-02-01T06:05:16;3.00;98.00
1155;DHT22;566;48.414;9.118;2023-02-01T06:07:42;3.00;98.00
1155;DHT22;566;48.414;9.118;2023-02-01T06:10:09;3.00;98.00
1155;DHT22;566;48.414;9.118;2023-02-01T06:12:35;3.00;98.00
1155;DHT22;566;48.414;9.118;2023-02-01T06:15:00;3.00;98.00
1155;DHT22;566;48.414;9.118;2023-02-01T06:17:26;3.10;98.00
1155;DHT22;566;48.414;9.118;2023-02-01T06:19:52;3.00;98.00
1155;DHT22;566;48.414;9.118;2023-02-01T06:22:17;3.00;98.00
1155;DHT22;566;48.414;9.118;2023-02-01T06:24:43;3.10;98.00
1155;DHT22;566;48.414;9.118;2023-02-01T06:27:08;3.10;98.00
1155;DHT22;566;48.414;9.118;2023-02-01T06:29:35;3.00;98.00
1155;DHT22;566;48.414;9.118;2023-02-01T06:32:00;2.90;98.00
1155;DHT22;566;48.414;9.118;2023-02-01T06:34:26;2.70;97.50
1155;DHT22;566;48.414;9.118;2023-02-01T06:36:51;2.60;95.90
1155;DHT22;566;48.414;9.118;2023-02-01T06:39:17;2.60;96.20
1155;DHT22;566;48.414;9.118;2023-02-01T06:41:46;2.50;95.40
1155;DHT22;566;48.414;9.118;2023-02-01T06:44:12;2.50;96.70
1155;DHT22;566;48.414;9.118;2023-02-01T06:46:37;2.50;97.40
1155;DHT22;566;48.414;9.118;2023-02-01T06:49:03;2.50;96.10
1155;DHT22;566;48.414;9.118;2023-02-01T06:51:28;2.60;97.30
1155;DHT22;566;48.414;9.118;2023-02-01T06:53:55;2.50;97.30
1155;DHT22;566;48.414;9.118;2023-02-01T06:56:21;2.50;97.80
1155;DHT22;566;48.414;9.118;2023-02-01T06:58:47;2.60;98.00
1155;DHT22;566;48.414;9.118;2023-02-01T07:01:14;2.60;98.00
1155;DHT22;566;48.414;9.118;2023-02-01T07:03:40;2.70;98.00
1155;DHT22;566;48.414;9.118;2023-02-01T07:06:06;2.60;96.60
1155;DHT22;566;48.414;9.118;2023-02-01T07:08:34;2.50;94.90
1155;DHT22;566;48.414;9.118;2023-02-01T07:11:06;2.40;93.60
1155;DHT22;566;48.414;9.118;2023-02-01T07:13:32;2.40;93.60
1155;DHT22;566;48.414;9.118;2023-02-01T07:16:01;2.40;93.20
1155;DHT22;566;48.414;9.118;2023-02-01T07:18:28;2.40;94.40
1155;DHT22;566;48.414;9.118;2023-02-01T07:20:58;2.40;93.90
1155;DHT22;566;48.414;9.118;2023-02-01T07:23:24;2.40;94.80
1155;DHT22;566;48.414;9.118;2023-02-01T07:26:04;2.40;95.50
1155;DHT22;566;48.414;9.118;2023-02-01T07:28:32;2.40;95.20
1155;DHT22;566;48.414;9.118;2023-02-01T07:31:16;2.50;95.50
1155;DHT22;566;48.414;9.118;2023-02-01T07:33:44;2.50;96.30
1155;DHT22;566;48.414;9.118;2023-02-01T07:36:12;2.50;95.40
1155;DHT22;566;48.414;9.118;2023-02-01T07:38:38;2.50;95.50
1155;DHT22;566;48.414;9.118;2023-02-01T07:41:07;2.50;95.10
1155;DHT22;566;48.414;9.118;2023-02-01T07:43:34;2.40;94.50
1155;DHT22;566;48.414;9.118;2023-02-01T07:46:01;2.40;94.00
1155;DHT22;566;48.414;9.118;2023-02-01T07:48:27;2.40;94.30
1155;DHT22;566;48.414;9.118;2023-02-01T07:51:05;2.40;94.90
1155;DHT22;566;48.414;9.118;2023-02-01T07:53:32;2.50;94.00
1155;DHT22;566;48.414;9.118;2023-02-01T07:55:58;2.50;95.40
1155;DHT22;566;48.414;9.118;2023-02-01T07:58:24;2.50;95.20
1155;DHT22;566;48.414;9.118;2023-02-01T08:00:51;2.60;95.90
1155;DHT22;566;48.414;9.118;2023-02-01T08:03:35;2.60;97.90
1155;DHT22;566;48.414;9.118;2023-02-01T08:06:06;2.70;98.00
1155;DHT22;566;48.414;9.118;2023-02-01T08:08:32;2.70;98.00
1155;DHT22;566;48.414;9.118;2023-02-01T08:10:59;2.80;98.00
1155;DHT22;566;48.414;9.118;2023-02-01T08:13:25;2.80;98.00
1155;DHT22;566;48.414;9.118;2023-02-01T08:15:50;2.90;98.00
1155;DHT22;566;48.414;9.118;2023-02-01T08:18:16;2.90;98.00
1155;DHT22;566;48.414;9.118;2023-02-01T08:20:46;2.90;98.00
1155;DHT22;566;48.414;9.118;2023-02-01T08:23:12;2.90;98.00
1155;DHT22;566;48.414;9.118;2023-02-01T08:25:38;3.00;98.00
1155;DHT22;566;48.414;9.118;2023-02-01T08:28:05;3.10;98.00
1155;DHT22;566;48.414;9.118;2023-02-01T08:30:30;3.10;98.00
1155;DHT22;566;48.414;9.118;2023-02-01T08:32:57;3.10;98.00
1155;DHT22;566;48.414;9.118;2023-02-01T08:35:26;3.10;98.00
1155;DHT22;566;48.414;9.118;2023-02-01T08:37:51;3.10;98.00
1155;DHT22;566;48.414;9.118;2023-02-01T08:40:17;3.20;98.00
1155;DHT22;566;48.414;9.118;2023-02-01T08:42:43;3.20;98.00
1155;DHT22;566;48.414;9.118;2023-02-01T08:45:19;3.20;98.00
1155;DHT22;566;48.414;9.118;2023-02-01T08:47:49;3.20;98.00
1155;DHT22;566;48.414;9.118;2023-02-01T08:50:15;3.20;98.00
1155;DHT22;566;48.414;9.118;2023-02-01T08:52:41;3.20;98.00
1155;DHT22;566;48.414;9.118;2023-02-01T08:55:07;3.20;98.00
1155;DHT22;566;48.414;9.118;2023-02-01T08:57:33;3.20;98.00
1155;DHT22;566;48.414;9.118;2023-02-01T08:59:59;3.20;98.00
1155;DHT22;566;48.414;9.118;2023-02-01T09:02:25;3.30;98.00
1155;DHT22;566;48.414;9.118;2023-02-01T09:04:51;3.40;98.00
1155;DHT22;566;48.414;9.118;2023-02-01T09:07:17;3.30;98.00
1155;DHT22;566;48.414;9.118;2023-02-01T09:09:44;3.30;98.00
1155;DHT22;566;48.414;9.118;2023-02-01T09:12:10;3.30;98.00
1155;DHT22;566;48.414;9.118;2023-02-01T09:14:36;3.20;98.00
1155;DHT22;566;48.414;9.118;2023-02-01T09:17:01;3.10;98.00
1155;DHT22;566;48.414;9.118;2023-02-01T09:19:27;3.10;98.00
1155;DHT22;566;48.414;9.118;2023-02-01T09:21:52;3.20;98.00
1155;DHT22;566;48.414;9.118;2023-02-01T09:24:18;3.30;98.00
1155;DHT22;566;48.414;9.118;2023-02-01T09:26:44;3.30;98.00
1155;DHT22;566;48.414;9.118;2023-02-01T09:29:09;3.40;98.00
1155;DHT22;566;48.414;9.118;2023-02-01T09:31:39;3.40;98.00
1155;DHT22;566;48.414;9.118;2023-02-01T09:34:05;3.40;98.00
1155;DHT22;566;48.414;9.118;2023-02-01T09:36:31;3.50;98.00
1155;DHT22;566;48.414;9.118;2023-02-01T09:38:57;3.40;98.00
1155;DHT22;566;48.414;9.118;2023-02-01T09:41:43;3.40;98.00
1155;DHT22;566;48.414;9.118;2023-02-01T09:44:21;3.40;98.00
1155;DHT22;566;48.414;9.118;2023-02-01T09:46:56;3.40;98.00
1155;DHT22;566;48.414;9.118;2023-02-01T09:49:30;3.40;98.00
1155;DHT22;566;48.414;9.118;2023-02-01T09:51:59;3.50;98.00
1155;DHT22;566;48.414;9.118;2023-02-01T09:54:46;3.50;98.00
1155;DHT22;566;48.414;9.118;2023-02-01T09:57:32;3.40;98.00
1155;DHT22;566;48.414;9.118;2023-02-01T10:00:09;3.60;98.00
1155;DHT22;566;48.414;9.118;2023-02-01T10:02:40;4.00;98.00
1155;DHT22;566;48.414;9.118;2023-02-01T10:05:16;4.50;98.00
1155;DHT22;566;48.414;9.118;2023-02-01T10:08:03;4.80;97.20
1155;DHT22;566;48.414;9.118;2023-02-01T10:10:39;5.40;96.20
1155;DHT22;566;48.414;9.118;2023-02-01T10:15:46;6.50;92.20
1155;DHT22;566;48.414;9.118;2023-02-01T10:18:36;5.80;93.10
1155;DHT22;566;48.414;9.118;2023-02-01T10:21:09;5.30;94.40
1155;DHT22;566;48.414;9.118;2023-02-01T10:26:44;4.70;95.40
1155;DHT22;566;48.414;9.118;2023-02-01T10:29:18;4.40;96.20
1155;DHT22;566;48.414;9.118;2023-02-01T10:31:44;4.50;96.50
1155;DHT22;566;48.414;9.118;2023-02-01T10:34:24;4.60;96.20
1155;DHT22;566;48.414;9.118;2023-02-01T10:36:58;4.90;95.90
1155;DHT22;566;48.414;9.118;2023-02-01T10:39:25;4.80;95.30
1155;DHT22;566;48.414;9.118;2023-02-01T10:41:50;4.60;95.90
1155;DHT22;566;48.414;9.118;2023-02-01T10:44:26;4.60;95.90
1155;DHT22;566;48.414;9.118;2023-02-01T10:46:52;4.60;95.40
1155;DHT22;566;48.414;9.118;2023-02-01T10:49:33;4.60;96.20
1155;DHT22;566;48.414;9.118;2023-02-01T10:52:15;4.70;95.90
1155;DHT22;566;48.414;9.118;2023-02-01T10:54:42;4.90;95.90
1155;DHT22;566;48.414;9.118;2023-02-01T10:57:20;5.10;95.00
1155;DHT22;566;48.414;9.118;2023-02-01T10:59:46;4.90;95.10
1155;DHT22;566;48.414;9.118;2023-02-01T11:02:29;4.70;95.70
1155;DHT22;566;48.414;9.118;2023-02-01T11:05:02;4.50;95.90
1155;DHT22;566;48.414;9.118;2023-02-01T11:07:28;4.30;96.30
1155;DHT22;566;48.414;9.118;2023-02-01T11:09:55;4.30;96.70
1155;DHT22;566;48.414;9.118;2023-02-01T11:12:37;4.50;97.10
1155;DHT22;566;48.414;9.118;2023-02-01T11:15:20;4.50;95.70
1155;DHT22;566;48.414;9.118;2023-02-01T11:17:50;4.50;96.00
1155;DHT22;566;48.414;9.118;2023-02-01T11:22:59;4.40;96.70
1155;DHT22;566;48.414;9.118;2023-02-01T11:25:25;4.50;96.30
1155;DHT22;566;48.414;9.118;2023-02-01T11:27:53;4.40;96.50
1155;DHT22;566;48.414;9.118;2023-02-01T11:30:32;4.30;96.90
1155;DHT22;566;48.414;9.118;2023-02-01T11:33:03;4.30;97.30
1155;DHT22;566;48.414;9.118;2023-02-01T11:35:29;4.20;97.50
1155;DHT22;566;48.414;9.118;2023-02-01T11:37:58;4.00;97.40
1155;DHT22;566;48.414;9.118;2023-02-01T11:40:36;3.90;97.60
1155;DHT22;566;48.414;9.118;2023-02-01T11:43:13;3.80;97.90
1155;DHT22;566;48.414;9.118;2023-02-01T11:45:39;3.70;98.00
1155;DHT22;566;48.414;9.118;2023-02-01T11:48:11;3.70;98.00
1155;DHT22;566;48.414;9.118;2023-02-01T11:56:44;3.60;98.00
1155;DHT22;566;48.414;9.118;2023-02-01T12:05:44;3.60;98.00
1155;DHT22;566;48.414;9.118;2023-02-01T12:08:22;3.60;98.00
1155;DHT22;566;48.414;9.118;2023-02-01T12:16:44;3.60;98.00
1155;DHT22;566;48.414;9.118;2023-02-01T12:19:13;3.60;98.00
1155;DHT22;566;48.414;9.118;2023-02-01T12:21:57;3.60;98.00
1155;DHT22;566;48.414;9.118;2023-02-01T12:35:49;3.60;98.00
1155;DHT22;566;48.414;9.118;2023-02-01T12:38:42;3.60;98.00
1155;DHT22;566;48.414;9.118;2023-02-01T12:41:20;3.70;98.00
1155;DHT22;566;48.414;9.118;2023-02-01T12:46:45;3.70;97.90
1155;DHT22;566;48.414;9.118;2023-02-01T12:49:17;3.70;97.60
1155;DHT22;566;48.414;9.118;2023-02-01T12:51:46;3.70;97.70
1155;DHT22;566;48.414;9.118;2023-02-01T12:57:11;3.60;98.00
1155;DHT22;566;48.414;9.118;2023-02-01T12:59:56;3.60;98.00
1155;DHT22;566;48.414;9.118;2023-02-01T13:02:56;3.60;98.00
1155;DHT22;566;48.414;9.118;2023-02-01T13:05:30;3.60;98.00
1155;DHT22;566;48.414;9.118;2023-02-01T13:08:12;3.70;97.90
1155;DHT22;566;48.414;9.118;2023-02-01T13:10:48;3.70;98.00
1155;DHT22;566;48.414;9.118;2023-02-01T13:13:25;3.70;97.90
1155;DHT22;566;48.414;9.118;2023-02-01T13:16:02;3.70;97.20
1155;DHT22;566;48.414;9.118;2023-02-01T13:18:39;3.70;96.70
1155;DHT22;566;48.414;9.118;2023-02-01T13:21:24;3.70;96.50
1155;DHT22;566;48.414;9.118;2023-02-01T13:23:52;3.60;96.60
1155;DHT22;566;48.414;9.118;2023-02-01T13:26:18;3.60;96.60
1155;DHT22;566;48.414;9.118;2023-02-01T13:29:05;3.60;96.40
1155;DHT22;566;48.414;9.118;2023-02-01T13:42:57;3.50;96.70
1155;DHT22;566;48.414;9.118;2023-02-01T13:45:33;3.50;96.70
1155;DHT22;566;48.414;9.118;2023-02-01T13:48:03;3.60;96.80
1155;DHT22;566;48.414;9.118;2023-02-01T13:50:40;3.50;96.90
1155;DHT22;566;48.414;9.118;2023-02-01T13:53:24;3.50;97.40
1155;DHT22;566;48.414;9.118;2023-02-01T13:56:00;3.50;97.50
1155;DHT22;566;48.414;9.118;2023-02-01T13:58:36;3.50;97.70
1155;DHT22;566;48.414;9.118;2023-02-01T14:09:15;3.50;98.00
1155;DHT22;566;48.414;9.118;2023-02-01T14:11:50;3.50;98.00
1155;DHT22;566;48.414;9.118;2023-02-01T14:17:50;3.50;98.00
1155;DHT22;566;48.414;9.118;2023-02-01T14:20:38;3.60;98.00
1155;DHT22;566;48.414;9.118;2023-02-01T14:23:12;3.60;98.00
1155;DHT22;566;48.414;9.118;2023-02-01T14:25:43;3.60;98.00
1155;DHT22;566;48.414;9.118;2023-02-01T14:28:24;3.60;98.00
1155;DHT22;566;48.414;9.118;2023-02-01T14:30:53;3.60;98.00
1155;DHT22;566;48.414;9.118;2023-02-01T14:33:22;3.60;98.00
1155;DHT22;566;48.414;9.118;2023-02-01T14:36:10;3.60;98.00
1155;DHT22;566;48.414;9.118;2023-02-01T14:38:37;3.70;98.00
1155;DHT22;566;48.414;9.118;2023-02-01T14:41:31;3.70;98.00
1155;DHT22;566;48.414;9.118;2023-02-01T14:49:59;3.70;97.80
1155;DHT22;566;48.414;9.118;2023-02-01T14:52:42;3.70;98.00
1155;DHT22;566;48.414;9.118;2023-02-01T14:58:19;3.60;97.80
1155;DHT22;566;48.414;9.118;2023-02-01T15:00:50;3.60;98.00
1155;DHT22;566;48.414;9.118;2023-02-01T15:03:34;3.60;98.00
1155;DHT22;566;48.414;9.118;2023-02-01T15:06:01;3.60;98.00
1155;DHT22;566;48.414;9.118;2023-02-01T15:08:31;3.60;97.90
1155;DHT22;566;48.414;9.118;2023-02-01T15:11:00;3.60;97.70
1155;DHT22;566;48.414;9.118;2023-02-01T15:13:29;3.60;97.70
1155;DHT22;566;48.414;9.118;2023-02-01T15:16:10;3.60;97.90
1155;DHT22;566;48.414;9.118;2023-02-01T15:18:36;3.60;98.00
1155;DHT22;566;48.414;9.118;2023-02-01T15:21:04;3.60;98.00
1155;DHT22;566;48.414;9.118;2023-02-01T15:23:31;3.60;98.00
1155;DHT22;566;48.414;9.118;2023-02-01T15:25:56;3.60;98.00
1155;DHT22;566;48.414;9.118;2023-02-01T15:28:23;3.60;98.00
1155;DHT22;566;48.414;9.118;2023-02-01T15:30:53;3.60;97.80
1155;DHT22;566;48.414;9.118;2023-02-01T15:33:19;3.60;98.00
1155;DHT22;566;48.414;9.118;2023-02-01T15:35:46;3.60;98.00
1155;DHT22;566;48.414;9.118;2023-02-01T15:38:38;3.60;98.00
1155;DHT22;566;48.414;9.118;2023-02-01T15:41:17;3.60;98.00
1155;DHT22;566;48.414;9.118;2023-02-01T15:46:30;3.60;98.00
1155;DHT22;566;48.414;9.118;2023-02-01T15:48:56;3.60;98.00
1155;DHT22;566;48.414;9.118;2023-02-01T15:51:24;3.60;98.00
1155;DHT22;566;48.414;9.118;2023-02-01T15:53:55;3.50;98.00
1155;DHT22;566;48.414;9.118;2023-02-01T15:56:24;3.50;98.00
1155;DHT22;566;48.414;9.118;2023-02-01T15:58:54;3.50;98.00
1155;DHT22;566;48.414;9.118;2023-02-01T16:01:20;3.50;98.00
1155;DHT22;566;48.414;9.118;2023-02-01T16:03:46;3.50;98.00
1155;DHT22;566;48.414;9.118;2023-02-01T16:08:54;3.60;98.00
1155;DHT22;566;48.414;9.118;2023-02-01T16:13:52;3.50;98.00
1155;DHT22;566;48.414;9.118;2023-02-01T16:16:18;3.60;97.90
1155;DHT22;566;48.414;9.118;2023-02-01T16:18:44;3.60;97.90
1155;DHT22;566;48.414;9.118;2023-02-01T16:21:10;3.50;98.00
1155;DHT22;566;48.414;9.118;2023-02-01T16:23:36;3.50;98.00
1155;DHT22;566;48.414;9.118;2023-02-01T16:26:03;3.50;98.00
1155;DHT22;566;48.414;9.118;2023-02-01T16:28:32;3.50;98.00
1155;DHT22;566;48.414;9.118;2023-02-01T16:31:01;3.50;98.00
1155;DHT22;566;48.414;9.118;2023-02-01T16:33:27;3.40;98.00
1155;DHT22;566;48.414;9.118;2023-02-01T16:35:56;3.40;98.00
1155;DHT22;566;48.414;9.118;2023-02-01T16:38:25;3.40;98.00
1155;DHT22;566;48.414;9.118;2023-02-01T16:40:51;3.40;98.00
1155;DHT22;566;48.414;9.118;2023-02-01T16:43:20;3.40;98.00
1155;DHT22;566;48.414;9.118;2023-02-01T16:45:47;3.40;98.00
1155;DHT22;566;48.414;9.118;2023-02-01T16:48:25;3.30;98.00
1155;DHT22;566;48.414;9.118;2023-02-01T16:50:54;3.30;98.00
1155;DHT22;566;48.414;9.118;2023-02-01T16:53:21;3.30;98.00
1155;DHT22;566;48.414;9.118;2023-02-01T16:55:47;3.30;98.00
1155;DHT22;566;48.414;9.118;2023-02-01T16:58:18;3.30;98.00
1155;DHT22;566;48.414;9.118;2023-02-01T17:00:44;3.30;98.00
1155;DHT22;566;48.414;9.118;2023-02-01T17:03:13;3.30;98.00
1155;DHT22;566;48.414;9.118;2023-02-01T17:05:53;3.30;98.00
1155;DHT22;566;48.414;9.118;2023-02-01T17:08:29;3.30;98.00
1155;DHT22;566;48.414;9.118;2023-02-01T17:10:55;3.20;98.00
1155;DHT22;566;48.414;9.118;2023-02-01T17:13:22;3.30;98.00
1155;DHT22;566;48.414;9.118;2023-02-01T17:16:19;3.30;98.00
1155;DHT22;566;48.414;9.118;2023-02-01T17:18:58;3.30;98.00
1155;DHT22;566;48.414;9.118;2023-02-01T17:21:26;3.30;98.00
1155;DHT22;566;48.414;9.118;2023-02-01T17:23:52;3.30;98.00
1155;DHT22;566;48.414;9.118;2023-02-01T17:26:23;3.30;98.00
1155;DHT22;566;48.414;9.118;2023-02-01T17:28:48;3.20;98.00
1155;DHT22;566;48.414;9.118;2023-02-01T17:31:14;3.20;98.00
1155;DHT22;566;48.414;9.118;2023-02-01T17:33:42;3.20;98.00
1155;DHT22;566;48.414;9.118;2023-02-01T17:36:16;3.20;98.00
1155;DHT22;566;48.414;9.118;2023-02-01T17:38:42;3.20;98.00
1155;DHT22;566;48.414;9.118;2023-02-01T17:41:12;3.20;98.00
1155;DHT22;566;48.414;9.118;2023-02-01T17:43:38;3.20;98.00
1155;DHT22;566;48.414;9.118;2023-02-01T17:46:16;3.20;98.00
1155;DHT22;566;48.414;9.118;2023-02-01T17:48:50;3.20;98.00
1155;DHT22;566;48.414;9.118;2023-02-01T17:51:17;3.20;98.00
1155;DHT22;566;48.414;9.118;2023-02-01T17:53:44;3.20;98.00
1155;DHT22;566;48.414;9.118;2023-02-01T17:56:15;3.20;98.00
1155;DHT22;566;48.414;9.118;2023-02-01T17:58:42;3.20;98.00
1155;DHT22;566;48.414;9.118;2023-02-01T18:01:19;3.10;98.00
1155;DHT22;566;48.414;9.118;2023-02-01T18:03:45;3.10;98.00
1155;DHT22;566;48.414;9.118;2023-02-01T18:06:16;3.10;98.00
1155;DHT22;566;48.414;9.118;2023-02-01T18:08:42;3.10;98.00
1155;DHT22;566;48.414;9.118;2023-02-01T18:11:18;3.10;98.00
1155;DHT22;566;48.414;9.118;2023-02-01T18:13:44;3.10;98.00
1155;DHT22;566;48.414;9.118;2023-02-01T18:16:27;3.20;98.00
1155;DHT22;566;48.414;9.118;2023-02-01T18:18:53;3.20;98.00
1155;DHT22;566;48.414;9.118;2023-02-01T18:21:21;3.20;98.00
1155;DHT22;566;48.414;9.118;2023-02-01T18:23:48;3.30;98.00
1155;DHT22;566;48.414;9.118;2023-02-01T18:26:15;3.30;98.00
1155;DHT22;566;48.414;9.118;2023-02-01T18:28:42;3.20;98.00
1155;DHT22;566;48.414;9.118;2023-02-01T18:31:19;3.20;98.00
1155;DHT22;566;48.414;9.118;2023-02-01T18:33:46;3.20;98.00
1155;DHT22;566;48.414;9.118;2023-02-01T18:36:13;3.20;98.00
1155;DHT22;566;48.414;9.118;2023-02-01T18:38:40;3.20;98.00
1155;DHT22;566;48.414;9.118;2023-02-01T18:41:06;3.20;98.00
1155;DHT22;566;48.414;9.118;2023-02-01T18:43:33;3.30;98.00
1155;DHT22;566;48.414;9.118;2023-02-01T18:45:58;3.30;98.00
1155;DHT22;566;48.414;9.118;2023-02-01T18:48:24;3.30;98.00
1155;DHT22;566;48.414;9.118;2023-02-01T18:50:50;3.20;98.00
1155;DHT22;566;48.414;9.118;2023-02-01T18:53:21;3.30;98.00